createdAt,value
2023-11-21T00:02:06.436Z,4.45
2023-11-21T00:04:55.305Z,4.35
2023-11-21T00:07:44.295Z,4.72
2023-11-21T00:10:33.166Z,4.53
2023-11-21T00:13:21.919Z,4.70
2023-11-21T00:16:10.837Z,4.50
2023-11-21T00:19:00.916Z,4.22
2023-11-21T00:21:49.673Z,4.30
2023-11-21T00:24:38.434Z,4.35
2023-11-21T00:27:27.211Z,4.20
2023-11-21T00:30:17.167Z,4.30
2023-11-21T00:33:06.630Z,4.07
2023-11-21T00:35:56.854Z,4.20
2023-11-21T00:38:45.601Z,3.95
2023-11-21T00:41:34.530Z,4.20
2023-11-21T00:44:23.347Z,3.95
2023-11-21T00:47:12.389Z,3.95
2023-11-21T00:50:01.263Z,3.95
2023-11-21T00:52:52.848Z,3.70
2023-11-21T00:55:41.953Z,3.53
2023-11-21T00:58:31.533Z,4.30
2023-11-21T01:01:20.706Z,4.22
2023-11-21T01:04:09.450Z,4.38
2023-11-21T01:06:58.192Z,3.97
2023-11-21T01:09:48.406Z,3.70
2023-11-21T01:12:37.727Z,3.95
2023-11-21T01:15:27.293Z,3.53
2023-11-21T01:18:16.012Z,3.92
2023-11-21T01:21:04.952Z,4.50
2023-11-21T01:23:53.619Z,3.50
2023-11-21T01:26:43.838Z,4.03
2023-11-21T01:29:32.518Z,3.47
2023-11-21T01:32:21.491Z,3.72
2023-11-21T01:35:11.412Z,3.42
2023-11-21T01:38:00.089Z,3.60
2023-11-21T01:40:48.972Z,3.70
2023-11-21T01:43:39.175Z,3.65
2023-11-21T01:46:28.069Z,3.53
2023-11-21T01:49:16.837Z,3.55
2023-11-21T01:52:06.716Z,3.50
2023-11-21T01:54:55.693Z,3.45
2023-11-21T01:57:44.380Z,3.58
2023-11-21T02:00:34.600Z,3.20
2023-11-21T02:03:23.440Z,3.20
2023-11-21T02:06:12.154Z,3.53
2023-11-21T02:09:01.977Z,3.50
2023-11-21T02:11:50.741Z,3.40
2023-11-21T02:14:39.726Z,3.10
2023-11-21T02:17:29.877Z,3.10
2023-11-21T02:20:19.008Z,3.08
2023-11-21T02:23:09.204Z,3.47
2023-11-21T02:25:58.036Z,3.30
2023-11-21T02:28:46.792Z,3.10
2023-11-21T02:31:35.685Z,3.17
2023-11-21T02:34:26.285Z,3.38
2023-11-21T02:37:15.501Z,3.20
2023-11-21T02:40:07.835Z,3.33
2023-11-21T02:42:56.633Z,3.10
2023-11-21T02:45:45.464Z,3.25
2023-11-21T02:48:34.209Z,2.78
2023-11-21T02:51:22.922Z,3.10
2023-11-21T02:54:12.257Z,2.67
2023-11-21T02:57:02.364Z,2.90
2023-11-21T02:59:51.341Z,2.30
2023-11-21T03:02:41.255Z,2.97
2023-11-21T03:05:30.762Z,2.80
2023-11-21T03:08:19.580Z,2.80
2023-11-21T03:11:09.347Z,2.83
2023-11-21T03:13:59.448Z,2.67
2023-11-21T03:16:48.120Z,2.65
2023-11-21T03:19:36.865Z,3.03
2023-11-21T03:22:25.681Z,2.72
2023-11-21T03:25:15.296Z,3.20
2023-11-21T03:28:04.570Z,2.80
2023-11-21T03:30:54.606Z,2.80
2023-11-21T03:33:43.408Z,2.72
2023-11-21T03:36:32.056Z,2.95
2023-11-21T03:39:21.643Z,2.50
2023-11-21T03:42:10.393Z,2.60
2023-11-21T03:44:59.121Z,2.70
2023-11-21T03:47:49.196Z,2.30
2023-11-21T03:50:38.010Z,2.45
2023-11-21T03:53:26.807Z,2.35
2023-11-21T03:56:16.521Z,2.50
2023-11-21T03:59:05.328Z,2.40
2023-11-21T04:01:54.029Z,2.60
2023-11-21T04:04:44.457Z,2.20
2023-11-21T04:07:33.285Z,2.50
2023-11-21T04:10:23.071Z,2.55
2023-11-21T04:13:11.827Z,2.65
2023-11-21T04:16:00.619Z,2.45
2023-11-21T04:18:49.310Z,2.58
2023-11-21T04:21:39.366Z,2.20
2023-11-21T04:24:28.220Z,2.70
2023-11-21T04:27:19.207Z,2.17
2023-11-21T04:30:11.153Z,2.30
2023-11-21T04:33:00.005Z,2.40
2023-11-21T04:35:49.067Z,2.17
2023-11-21T04:38:39.190Z,2.70
2023-11-21T04:41:27.881Z,2.40
2023-11-21T04:44:17.736Z,2.35
2023-11-21T04:47:07.227Z,2.42
2023-11-21T04:49:56.496Z,1.98
2023-11-21T04:52:45.190Z,2.45
2023-11-21T04:55:35.334Z,2.45
2023-11-21T04:58:24.220Z,2.47
2023-11-21T05:01:13.185Z,2.33
2023-11-21T05:04:02.029Z,2.30
2023-11-21T05:06:51.040Z,2.30
2023-11-21T05:09:45.092Z,2.25
2023-11-21T05:12:36.214Z,2.78
2023-11-21T05:15:26.139Z,2.80
2023-11-21T05:18:15.514Z,2.20
2023-11-21T05:21:04.762Z,2.33
2023-11-21T05:23:53.705Z,2.30
2023-11-21T05:26:42.364Z,2.25
2023-11-21T05:29:32.453Z,2.58
2023-11-21T05:32:21.145Z,2.72
2023-11-21T05:35:13.296Z,2.65
2023-11-21T05:38:02.036Z,2.55
2023-11-21T05:40:51.209Z,2.30
2023-11-21T05:43:40.030Z,2.53
2023-11-21T05:46:30.285Z,2.40
2023-11-21T05:49:23.097Z,2.75
2023-11-21T05:52:11.874Z,2.38
2023-11-21T05:55:00.743Z,2.50
2023-11-21T05:57:49.480Z,2.80
2023-11-21T06:00:38.709Z,2.83
2023-11-21T06:03:28.902Z,2.30
2023-11-21T06:06:17.746Z,2.70
2023-11-21T06:09:07.018Z,2.33
2023-11-21T06:11:55.716Z,2.15
2023-11-21T06:14:44.435Z,2.78
2023-11-21T06:17:33.290Z,2.42
2023-11-21T06:20:24.457Z,2.53
2023-11-21T06:23:13.271Z,2.20
2023-11-21T06:26:02.266Z,2.45
2023-11-21T06:28:52.596Z,2.25
2023-11-21T06:31:42.024Z,2.40
2023-11-21T06:34:31.498Z,2.53
2023-11-21T06:37:22.379Z,2.50
2023-11-21T06:40:11.649Z,2.75
2023-11-21T06:43:01.533Z,1.98
2023-11-21T06:45:50.347Z,2.75
2023-11-21T06:48:39.681Z,2.90
2023-11-21T06:51:28.651Z,2.60
2023-11-21T06:54:18.698Z,3.00
2023-11-21T06:57:07.464Z,3.00
2023-11-21T06:59:57.056Z,3.10
2023-11-21T07:02:46.202Z,3.00
2023-11-21T07:05:35.079Z,3.10
2023-11-21T07:08:23.819Z,2.92
2023-11-21T07:11:13.930Z,2.25
2023-11-21T07:14:06.707Z,2.40
2023-11-21T07:16:55.434Z,2.53
2023-11-21T07:19:44.145Z,3.08
2023-11-21T07:22:32.982Z,2.55
2023-11-21T07:25:23.412Z,2.80
2023-11-21T07:28:13.593Z,2.50
2023-11-21T07:31:02.422Z,2.88
2023-11-21T07:33:51.196Z,2.90
2023-11-21T07:36:40.016Z,2.65
2023-11-21T07:39:28.672Z,2.90
2023-11-21T07:42:17.934Z,2.83
2023-11-21T07:45:09.959Z,2.70
2023-11-21T07:47:58.825Z,2.40
2023-11-21T07:50:49.147Z,2.90
2023-11-21T07:53:37.953Z,2.63
2023-11-21T07:56:26.733Z,3.80
2023-11-21T07:59:15.458Z,2.70
2023-11-21T08:02:05.944Z,2.58
2023-11-21T08:04:54.726Z,2.83
2023-11-21T08:07:43.688Z,2.78
2023-11-21T08:10:32.507Z,2.63
2023-11-21T08:13:21.292Z,2.80
2023-11-21T08:16:10.764Z,2.90
2023-11-21T08:19:01.066Z,3.00
2023-11-21T08:21:49.874Z,3.00
2023-11-21T08:24:38.587Z,2.83
2023-11-21T08:27:27.461Z,3.70
2023-11-21T08:30:18.162Z,3.85
2023-11-21T08:33:06.955Z,4.28
2023-11-21T08:35:57.093Z,3.42
2023-11-21T08:38:46.056Z,3.30
2023-11-21T08:41:34.973Z,2.70
2023-11-21T08:44:24.278Z,3.00
2023-11-21T08:47:13.151Z,2.97
2023-11-21T08:50:01.868Z,2.63
2023-11-21T08:52:52.537Z,2.90
2023-11-21T08:55:41.558Z,2.95
2023-11-21T08:58:30.460Z,3.20
2023-11-21T09:01:19.588Z,3.42
2023-11-21T09:04:09.445Z,2.97
2023-11-21T09:06:58.137Z,3.60
2023-11-21T09:09:48.836Z,3.35
2023-11-21T09:12:38.516Z,3.40
2023-11-21T09:15:27.388Z,3.10
2023-11-21T09:18:16.592Z,3.40
2023-11-21T09:21:06.288Z,3.08
2023-11-21T09:23:55.422Z,3.63
2023-11-21T09:26:46.688Z,2.85
2023-11-21T09:29:35.446Z,2.88
2023-11-21T09:32:24.151Z,3.47
2023-11-21T09:35:13.051Z,2.50
2023-11-21T09:38:03.059Z,2.92
2023-11-21T09:40:54.112Z,2.88
2023-11-21T09:43:46.153Z,3.55
2023-11-21T09:46:35.006Z,2.75
2023-11-21T09:49:26.586Z,2.97
2023-11-21T09:52:17.255Z,2.90
2023-11-21T09:55:07.067Z,2.80
2023-11-21T09:57:56.150Z,3.08
2023-11-21T10:00:47.252Z,3.25
2023-11-21T10:03:39.474Z,2.83
2023-11-21T10:06:28.692Z,3.22
2023-11-21T10:09:17.531Z,2.95
2023-11-21T10:12:07.889Z,2.85
2023-11-21T10:14:57.204Z,2.88
2023-11-21T10:17:47.366Z,3.00
2023-11-21T10:20:36.256Z,2.63
2023-11-21T10:23:25.229Z,3.20
2023-11-21T10:26:28.917Z,2.90
2023-11-21T10:29:20.489Z,3.00
2023-11-21T10:32:09.505Z,3.17
2023-11-21T10:35:07.649Z,5.47
2023-11-21T10:38:02.890Z,8.93
2023-11-21T10:40:51.984Z,5.93
2023-11-21T10:43:41.263Z,5.80
2023-11-21T10:46:31.855Z,5.22
2023-11-21T10:49:21.517Z,6.00
2023-11-21T10:52:18.761Z,5.38
2023-11-21T10:55:22.627Z,5.53
2023-11-21T10:58:12.354Z,5.35
2023-11-21T11:01:01.183Z,5.40
2023-11-21T11:03:50.635Z,4.78
2023-11-21T11:06:40.307Z,5.07
2023-11-21T11:09:30.382Z,5.97
2023-11-21T11:12:20.507Z,5.32
2023-11-21T11:15:11.307Z,6.60
2023-11-21T11:18:00.229Z,6.20
2023-11-21T11:20:49.149Z,5.88
2023-11-21T11:23:56.627Z,5.30
2023-11-21T11:26:50.048Z,6.00
2023-11-21T11:29:43.456Z,6.68
2023-11-21T11:32:43.020Z,6.35
2023-11-21T11:35:36.692Z,6.20
2023-11-21T11:38:25.399Z,6.70
2023-11-21T11:41:14.360Z,6.70
2023-11-21T11:44:05.488Z,6.38
2023-11-21T11:46:55.089Z,6.43
2023-11-21T11:50:05.293Z,5.13
2023-11-21T11:52:56.290Z,5.97
2023-11-21T11:55:45.124Z,6.85
2023-11-21T11:58:40.229Z,6.32
2023-11-21T12:01:30.696Z,6.45
2023-11-21T12:04:36.766Z,6.38
2023-11-21T12:07:25.924Z,6.47
2023-11-21T12:10:19.060Z,6.00
2023-11-21T12:13:09.841Z,6.32
2023-11-21T12:15:58.638Z,6.22
2023-11-21T12:18:48.780Z,6.85
2023-11-21T12:21:38.522Z,6.70
2023-11-21T12:24:30.124Z,6.75
2023-11-21T12:27:19.515Z,5.90
2023-11-21T12:30:14.640Z,5.65
2023-11-21T12:33:04.125Z,5.38
2023-11-21T12:35:54.991Z,5.93
2023-11-21T12:38:44.067Z,5.32
2023-11-21T12:41:32.866Z,5.20
2023-11-21T12:44:25.147Z,4.97
2023-11-21T12:47:16.141Z,5.30
2023-11-21T12:50:15.339Z,5.65
2023-11-21T12:53:07.199Z,4.65
2023-11-21T12:55:59.571Z,5.28
2023-11-21T12:58:49.267Z,4.75
2023-11-21T13:01:38.961Z,5.07
2023-11-21T13:04:33.824Z,4.55
2023-11-21T13:07:23.809Z,5.05
2023-11-21T13:10:13.957Z,4.88
2023-11-21T13:13:06.303Z,4.57
2023-11-21T13:15:57.349Z,4.53
2023-11-21T13:18:46.371Z,4.07
2023-11-21T13:21:36.353Z,4.55
2023-11-21T13:24:25.256Z,4.45
2023-11-21T13:27:16.578Z,4.65
2023-11-21T13:30:09.699Z,4.38
2023-11-21T13:33:03.132Z,4.40
2023-11-21T13:35:53.184Z,4.25
2023-11-21T13:38:44.556Z,4.88
2023-11-21T13:41:33.339Z,4.30
2023-11-21T13:44:30.651Z,4.80
2023-11-21T13:47:19.369Z,4.78
2023-11-21T13:50:18.291Z,4.68
2023-11-21T13:53:17.276Z,4.50
2023-11-21T13:56:07.471Z,5.15
2023-11-21T13:58:56.998Z,6.32
2023-11-21T14:01:57.611Z,7.25
2023-11-21T14:04:56.301Z,5.82
2023-11-21T14:07:49.166Z,7.30
2023-11-21T14:10:44.041Z,6.53
2023-11-21T14:13:32.890Z,5.72
2023-11-21T14:16:23.024Z,6.65
2023-11-21T14:19:17.226Z,6.18
2023-11-21T14:22:06.669Z,5.72
2023-11-21T14:24:59.957Z,6.15
2023-11-21T14:27:48.855Z,6.22
2023-11-21T14:30:37.636Z,5.53
2023-11-21T14:33:26.393Z,5.47
2023-11-21T14:36:18.498Z,5.10
2023-11-21T14:39:10.442Z,5.75
2023-11-21T14:42:00.748Z,5.30
2023-11-21T14:44:49.483Z,5.22
2023-11-21T14:47:39.796Z,5.18
2023-11-21T14:50:45.137Z,4.97
2023-11-21T14:53:52.404Z,4.47
2023-11-21T14:56:40.505Z,5.05
2023-11-21T14:59:29.245Z,4.95
2023-11-21T15:02:18.456Z,4.50
2023-11-21T15:05:09.882Z,4.80
2023-11-21T15:07:58.250Z,5.03
2023-11-21T15:10:50.853Z,4.82
2023-11-21T15:13:39.963Z,4.95
2023-11-21T15:16:28.748Z,4.60
2023-11-21T15:19:19.739Z,4.78
2023-11-21T15:22:08.793Z,4.70
2023-11-21T15:24:58.982Z,4.55
2023-11-21T15:27:51.270Z,4.82
2023-11-21T15:30:40.105Z,4.68
2023-11-21T15:33:29.170Z,4.30
2023-11-21T15:36:18.083Z,4.45
2023-11-21T15:39:08.822Z,4.13
2023-11-21T15:41:57.535Z,4.80
2023-11-21T15:44:47.696Z,3.95
2023-11-21T15:47:36.986Z,4.55
2023-11-21T15:50:25.935Z,4.78
2023-11-21T15:53:14.950Z,4.63
2023-11-21T15:56:05.341Z,4.80
2023-11-21T15:58:54.267Z,4.55
2023-11-21T16:01:47.077Z,4.47
2023-11-21T16:04:38.053Z,4.43
2023-11-21T16:07:26.779Z,4.35
2023-11-21T16:10:16.384Z,4.75
2023-11-21T16:13:05.331Z,5.07
2023-11-21T16:15:55.424Z,5.60
2023-11-21T16:18:45.518Z,5.00
2023-11-21T16:21:34.240Z,4.95
2023-11-21T16:24:24.205Z,5.60
2023-11-21T16:27:12.965Z,4.78
2023-11-21T16:30:01.811Z,4.70
2023-11-21T16:32:50.805Z,4.75
2023-11-21T16:35:42.935Z,5.00
2023-11-21T16:38:31.709Z,4.97
2023-11-21T16:41:20.582Z,4.63
2023-11-21T16:44:16.040Z,5.50
2023-11-21T16:47:06.985Z,5.05
2023-11-21T16:49:56.190Z,5.45
2023-11-21T16:52:46.825Z,5.50
2023-11-21T16:55:35.971Z,5.80
2023-11-21T16:58:24.755Z,4.85
2023-11-21T17:01:14.054Z,5.18
2023-11-21T17:04:03.813Z,5.03
2023-11-21T17:06:52.901Z,5.32
2023-11-21T17:09:47.603Z,5.45
2023-11-21T17:12:36.417Z,4.72
2023-11-21T17:15:25.617Z,5.22
2023-11-21T17:18:14.420Z,5.15
2023-11-21T17:21:03.616Z,5.55
2023-11-21T17:23:53.090Z,5.05
2023-11-21T17:26:45.037Z,5.10
2023-11-21T17:29:33.732Z,5.20
2023-11-21T17:32:22.855Z,5.00
2023-11-21T17:35:12.596Z,4.63
2023-11-21T17:38:02.591Z,5.88
2023-11-21T17:40:51.501Z,5.47
2023-11-21T17:43:43.033Z,5.35
2023-11-21T17:46:32.395Z,5.07
2023-11-21T17:49:21.264Z,5.05
2023-11-21T17:52:10.138Z,5.10
2023-11-21T17:54:58.957Z,5.30
2023-11-21T17:57:47.729Z,5.60
2023-11-21T18:00:37.966Z,5.28
2023-11-21T18:03:27.056Z,5.50
2023-11-21T18:06:16.029Z,5.32
2023-11-21T18:09:05.624Z,5.28
2023-11-21T18:11:54.410Z,4.93
2023-11-21T18:14:44.265Z,4.95
2023-11-21T18:17:34.460Z,4.88
2023-11-21T18:20:23.408Z,5.05
2023-11-21T18:23:13.271Z,4.97
2023-11-21T18:26:02.115Z,4.57
2023-11-21T18:28:51.015Z,5.07
2023-11-21T18:31:42.577Z,5.30
2023-11-21T18:34:32.803Z,4.50
2023-11-21T18:37:21.628Z,5.05
2023-11-21T18:40:12.000Z,4.78
2023-11-21T18:43:00.839Z,4.40
2023-11-21T18:45:50.172Z,4.78
2023-11-21T18:48:39.628Z,4.55
2023-11-21T18:51:29.716Z,4.57
2023-11-21T18:54:18.593Z,4.63
2023-11-21T18:57:07.377Z,4.43
2023-11-21T18:59:56.215Z,3.88
2023-11-21T19:02:45.246Z,4.30
2023-11-21T19:05:35.394Z,4.47
2023-11-21T19:08:25.639Z,4.28
2023-11-21T19:11:14.453Z,4.28
2023-11-21T19:14:03.618Z,4.32
2023-11-21T19:16:52.492Z,4.35
2023-11-21T19:19:41.293Z,4.43
2023-11-21T19:22:30.322Z,4.18
2023-11-21T19:25:20.962Z,4.32
2023-11-21T19:28:09.841Z,4.20
2023-11-21T19:31:00.005Z,4.05
2023-11-21T19:33:49.203Z,4.15
2023-11-21T19:36:42.456Z,4.47
2023-11-21T19:39:31.408Z,4.07
2023-11-21T19:42:21.864Z,4.03
2023-11-21T19:45:13.205Z,4.30
2023-11-21T19:48:02.144Z,4.28
2023-11-21T19:50:51.132Z,4.00
2023-11-21T19:53:40.036Z,4.20
2023-11-21T19:56:28.860Z,3.90
2023-11-21T19:59:21.045Z,4.10
2023-11-21T20:02:10.050Z,3.95
2023-11-21T20:04:59.285Z,4.63
2023-11-21T20:07:48.827Z,4.32
2023-11-21T20:10:39.396Z,3.83
2023-11-21T20:13:28.172Z,4.15
2023-11-21T20:16:19.861Z,4.17
2023-11-21T20:19:09.433Z,4.38
2023-11-21T20:21:58.497Z,4.03
2023-11-21T20:24:48.360Z,3.83
2023-11-21T20:27:37.096Z,4.10
2023-11-21T20:30:28.958Z,4.25
2023-11-21T20:33:19.312Z,3.60
2023-11-21T20:36:08.907Z,3.88
2023-11-21T20:38:57.663Z,3.83
2023-11-21T20:41:46.517Z,3.58
2023-11-21T20:44:35.400Z,3.90
2023-11-21T20:47:24.278Z,3.75
2023-11-21T20:50:14.903Z,4.13
2023-11-21T20:53:05.652Z,5.30
2023-11-21T20:55:54.699Z,5.63
2023-11-21T20:58:43.960Z,7.57
2023-11-21T21:01:32.996Z,7.35
2023-11-21T21:04:22.174Z,7.43
2023-11-21T21:07:12.455Z,7.93
2023-11-21T21:10:01.420Z,6.63
2023-11-21T21:12:51.292Z,6.40
2023-11-21T21:15:40.727Z,6.70
2023-11-21T21:18:29.959Z,5.88
2023-11-21T21:21:18.747Z,6.07
2023-11-21T21:24:10.351Z,6.75
2023-11-21T21:26:59.032Z,5.43
2023-11-21T21:29:47.866Z,5.70
2023-11-21T21:32:36.687Z,5.07
2023-11-21T21:35:29.783Z,5.18
2023-11-21T21:38:18.766Z,4.85
2023-11-21T21:41:11.360Z,4.90
2023-11-21T21:44:00.389Z,4.55
2023-11-21T21:46:49.395Z,4.70
2023-11-21T21:49:38.853Z,4.70
2023-11-21T21:52:36.860Z,4.03
2023-11-21T21:55:25.793Z,4.65
2023-11-21T21:58:15.917Z,4.35
2023-11-21T22:01:05.250Z,4.75
2023-11-21T22:03:54.078Z,4.70
2023-11-21T22:06:43.072Z,5.18
2023-11-21T22:09:34.179Z,4.88
2023-11-21T22:12:23.123Z,4.65
2023-11-21T22:15:13.705Z,4.70
2023-11-21T22:18:02.500Z,4.63
2023-11-21T22:20:51.895Z,4.60
2023-11-21T22:23:40.717Z,4.63
2023-11-21T22:26:29.522Z,4.80
2023-11-21T22:29:18.398Z,4.75
2023-11-21T22:32:09.082Z,4.85
2023-11-21T22:34:57.858Z,4.53
2023-11-21T22:37:46.700Z,4.55
2023-11-21T22:40:35.419Z,4.38
2023-11-21T22:43:24.187Z,4.78
2023-11-21T22:46:13.712Z,4.50
2023-11-21T22:49:05.151Z,4.53
2023-11-21T22:51:53.963Z,4.53
2023-11-21T22:54:42.709Z,4.43
2023-11-21T22:57:32.483Z,4.10
2023-11-21T23:00:22.416Z,4.38
2023-11-21T23:03:11.417Z,4.15
2023-11-21T23:06:01.572Z,3.80
2023-11-21T23:08:50.548Z,4.45
2023-11-21T23:11:39.275Z,4.40
2023-11-21T23:14:28.351Z,4.63
2023-11-21T23:17:18.746Z,4.38
2023-11-21T23:20:10.879Z,4.53
2023-11-21T23:23:01.226Z,3.92
2023-11-21T23:25:49.895Z,4.35
2023-11-21T23:28:38.756Z,4.20
2023-11-21T23:31:27.985Z,4.03
2023-11-21T23:34:16.762Z,4.13
2023-11-21T23:37:06.217Z,4.07
2023-11-21T23:39:56.367Z,3.97
2023-11-21T23:42:45.584Z,3.92
2023-11-21T23:45:34.729Z,3.92
2023-11-21T23:48:23.732Z,4.32
2023-11-21T23:51:12.472Z,3.90
2023-11-21T23:54:01.266Z,4.32
2023-11-21T23:56:52.264Z,3.92
2023-11-21T23:59:41.031Z,4.45
